Time;durP1;ratioP1;P1;durP2;ratioP2;P2;SDS_P1;SDS_P2;PMS_P1;PMS_P2;Temp;Humidity;BMP_temperature;BMP_pressure;BME280_temperature;BME280_humidity;BME280_pressure;Samples;Min_cycle;Max_cycle;Signal;HPM_P1;HPM_P2
2023/10/05 00:01:24;;;;;;;18.08;11.23;;;;;;;20.58;100.00;102019.22;143728;575;46011;-82
2023/10/05 00:03:51;;;;;;;17.83;10.85;;;;;;;20.54;100.00;102015.28;143730;593;45012;-81
2023/10/05 00:06:28;;;;;;;17.05;10.63;;;;;;;20.51;100.00;102019.34;143728;680;45927;-80
2023/10/05 00:08:56;;;;;;;18.37;9.55;;;;;;;20.49;100.00;102007.81;143730;600;47004;-81
2023/10/05 00:11:29;;;;;;;16.10;9.00;;;;;;;20.54;100.00;102009.84;143724;598;48008;-82
2023/10/05 00:14:07;;;;;;;15.53;9.30;;;;;;;20.56;100.00;102005.78;143730;656;45012;-81
2023/10/05 00:16:37;;;;;;;15.93;8.35;;;;;;;20.57;100.00;102003.91;143728;578;45927;-79
2023/10/05 00:19:12;;;;;;;11.52;8.38;;;;;;;20.59;100.00;101999.87;143732;693;45010;-81
2023/10/05 00:21:55;;;;;;;15.75;9.20;;;;;;;20.57;100.00;102002.00;143724;628;47008;-80
2023/10/05 00:24:37;;;;;;;20.23;9.20;;;;;;;20.52;100.00;101998.31;143727;624;46004;-80
2023/10/05 00:27:09;;;;;;;11.82;8.10;;;;;;;20.50;100.00;102000.44;143727;603;46006;-81
2023/10/05 00:29:47;;;;;;;15.88;9.23;;;;;;;20.44;100.00;102003.06;143731;589;45010;-82
2023/10/05 00:32:26;;;;;;;22.58;9.40;;;;;;;20.39;100.00;102002.94;143723;574;48025;-82
2023/10/05 00:35:08;;;;;;;14.43;8.85;;;;;;;20.39;100.00;102002.94;143720;573;47013;-82
2023/10/05 00:37:36;;;;;;;16.58;9.43;;;;;;;20.34;100.00;102008.25;143727;603;47006;-82
2023/10/05 00:40:05;;;;;;;14.57;8.25;;;;;;;20.32;100.00;101999.47;143729;743;47004;-81
2023/10/05 00:42:32;;;;;;;15.88;8.15;;;;;;;20.29;100.00;102005.41;143723;584;47010;-81
2023/10/05 00:45:01;;;;;;;13.32;8.52;;;;;;;20.21;100.00;102008.44;143729;597;46002;-81
2023/10/05 00:47:29;;;;;;;15.25;8.50;;;;;;;20.14;100.00;102000.38;143727;588;46000;-80
2023/10/05 00:49:58;;;;;;;16.02;8.95;;;;;;;20.21;100.00;101998.34;143724;585;48002;-81
2023/10/05 00:52:25;;;;;;;13.07;8.13;;;;;;;20.21;100.00;102003.81;143722;622;48008;-80
2023/10/05 00:55:06;;;;;;;13.45;8.68;;;;;;;20.25;100.00;101998.75;143721;573;47004;-81
2023/10/05 00:57:34;;;;;;;12.23;8.75;;;;;;;20.25;100.00;101999.56;143719;601;47006;-80
2023/10/05 03:02:27;;;;;;;34.05;10.55;;;;;;;19.88;100.00;102016.00;143725;599;47004;-81
2023/10/05 03:05:02;;;;;;;22.90;9.73;;;;;;;19.88;100.00;102018.72;143729;631;45925;-81
2023/10/05 03:07:29;;;;;;;19.30;9.75;;;;;;;19.89;100.00;102016.84;143728;607;47008;-81
2023/10/05 03:09:59;;;;;;;20.00;9.82;;;;;;;19.88;100.00;102017.91;143730;896;46012;-81
2023/10/05 03:12:27;;;;;;;27.85;10.32;;;;;;;19.85;100.00;102022.72;143726;568;46010;-81
2023/10/05 03:14:54;;;;;;;19.92;9.98;;;;;;;19.94;100.00;102027.91;143728;572;47004;-81
2023/10/05 03:17:22;;;;;;;23.60;10.05;;;;;;;19.93;100.00;102027.06;143724;915;47008;-81
2023/10/05 03:19:51;;;;;;;23.00;9.88;;;;;;;19.93;100.00;102029.78;143730;839;46003;-81
2023/10/05 03:22:23;;;;;;;18.98;10.02;;;;;;;19.95;100.00;102026.81;143729;572;45921;-81
2023/10/05 03:24:50;;;;;;;19.37;10.15;;;;;;;19.89;100.00;102028.56;143728;598;46006;-82
2023/10/05 03:27:18;;;;;;;28.62;10.13;;;;;;;19.83;100.00;102033.03;143726;595;47008;-80
2023/10/05 03:29:47;;;;;;;28.80;10.55;;;;;;;19.79;100.00;102028.28;143728;668;47006;-80
2023/10/05 03:32:18;;;;;;;24.30;10.32;;;;;;;19.79;100.00;102033.72;143727;584;47010;-81
2023/10/05 03:35:03;;;;;;;21.27;10.88;;;;;;;19.76;100.00;102036.91;143727;590;46007;-83
2023/10/05 03:37:31;;;;;;;18.00;9.38;;;;;;;19.76;100.00;102039.63;143727;672;46006;-82
2023/10/05 03:40:19;;;;;;;25.08;10.05;;;;;;;19.77;100.00;102036.66;143728;786;47006;-81
2023/10/05 03:42:46;;;;;;;16.85;9.85;;;;;;;19.73;100.00;102034.63;143723;576;47013;-81
2023/10/05 03:45:16;;;;;;;18.60;9.93;;;;;;;19.71;100.00;102043.03;143728;775;47004;-83
2023/10/05 03:47:43;;;;;;;20.25;11.05;;;;;;;19.69;100.00;102035.06;143728;984;46002;-81
2023/10/05 03:50:16;;;;;;;21.85;10.30;;;;;;;19.68;100.00;102043.50;143714;973;50002;-80
2023/10/05 03:52:45;;;;;;;17.50;10.68;;;;;;;19.65;100.00;102042.06;143729;570;45920;-82
2023/10/05 03:55:12;;;;;;;22.48;10.93;;;;;;;19.68;100.00;102043.50;143721;580;48006;-81
2023/10/05 03:57:42;;;;;;;22.17;9.77;;;;;;;19.68;100.00;102047.03;143728;741;46009;-81
2023/10/05 04:00:23;;;;;;;17.33;10.35;;;;;;;19.69;100.00;102047.88;143729;566;47002;-81
2023/10/05 04:02:52;;;;;;;18.50;10.85;;;;;;;19.62;100.00;102050.69;143723;594;47010;-80
2023/10/05 04:05:22;;;;;;;20.27;9.90;;;;;;;19.59;100.00;102050.31;143713;581;57011;-81
2023/10/05 04:07:50;;;;;;;26.58;10.35;;;;;;;19.58;100.00;102057.66;143728;965;45923;-80
2023/10/05 04:10:23;;;;;;;19.58;10.93;;;;;;;19.61;100.00;102053.63;143726;575;47002;-80
2023/10/05 04:12:54;;;;;;;22.73;10.32;;;;;;;19.60;100.00;102055.53;143722;573;47008;-81
2023/10/05 04:15:22;;;;;;;33.85;11.68;;;;;;;19.62;100.00;102063.47;143730;603;45012;-81
2023/10/05 04:17:53;;;;;;;29.02;11.30;;;;;;;19.59;100.00;102069.41;143730;986;45923;-80
2023/10/05 04:20:27;;;;;;;34.58;13.07;;;;;;;19.58;100.00;102065.81;143729;590;47002;-81
2023/10/05 04:22:57;;;;;;;29.70;11.25;;;;;;;19.59;100.00;102077.56;143730;591;45920;-80
2023/10/05 04:25:24;;;;;;;22.17;11.20;;;;;;;19.56;100.00;102080.75;143726;597;48004;-83
2023/10/05 04:27:52;;;;;;;25.55;11.60;;;;;;;19.57;100.00;102077.78;143732;852;45010;-80
2023/10/05 04:30:21;;;;;;;33.15;11.10;;;;;;;19.57;100.00;102085.94;143731;586;47006;-82
2023/10/05 04:32:48;;;;;;;30.25;12.63;;;;;;;19.50;100.00;102088.75;143723;666;47011;-79
2023/10/05 04:35:28;;;;;;;25.37;12.23;;;;;;;19.48;100.00;102085.41;143728;603;46006;-81
2023/10/05 04:37:56;;;;;;;34.35;11.88;;;;;;;19.44;100.00;102092.38;143727;580;46006;-80
2023/10/05 04:40:24;;;;;;;32.30;12.25;;;;;;;19.47;100.00;102088.38;143732;585;45011;-83
2023/10/05 04:42:58;;;;;;;31.87;13.00;;;;;;;19.48;100.00;102087.31;143729;580;46013;-81
2023/10/05 04:45:27;;;;;;;26.90;11.73;;;;;;;19.46;100.00;102087.53;143730;623;45928;-83
2023/10/05 04:47:58;;;;;;;41.58;13.05;;;;;;;19.49;100.00;102081.63;143725;901;46025;-83
2023/10/05 04:50:27;;;;;;;55.12;14.57;;;;;;;19.61;100.00;102084.44;143727;705;47007;-83
2023/10/05 04:52:54;;;;;;;52.50;14.18;;;;;;;19.67;100.00;102099.91;143724;984;48012;-83
2023/10/05 04:55:31;;;;;;;52.53;13.02;;;;;;;19.75;100.00;102087.03;143726;567;47006;-83
2023/10/05 05:03:56;;;;;;;43.38;13.43;;;;;;;19.74;100.00;102097.09;143731;749;47012;-81
2023/10/05 05:06:27;;;;;;;47.50;13.18;;;;;;;19.67;100.00;102105.38;143730;616;45012;-82
2023/10/05 05:08:53;;;;;;;39.15;12.40;;;;;;;19.66;100.00;102108.28;143726;574;47008;-81
2023/10/05 05:11:20;;;;;;;45.90;12.30;;;;;;;19.68;100.00;102114.34;143732;822;46004;-82
2023/10/05 05:13:48;;;;;;;38.13;12.40;;;;;;;19.69;100.00;102108.66;143723;606;48012;-82
2023/10/05 05:16:16;;;;;;;27.65;10.73;;;;;;;19.71;100.00;102113.91;143731;946;45012;-82
2023/10/05 05:18:43;;;;;;;39.63;12.07;;;;;;;19.74;100.00;102104.44;143728;964;45923;-82
2023/10/05 05:21:11;;;;;;;36.70;12.30;;;;;;;19.82;100.00;102115.06;143733;572;45010;-82
2023/10/05 05:23:39;;;;;;;43.47;12.15;;;;;;;19.85;100.00;102114.63;143714;711;50006;-82
2023/10/05 05:26:11;;;;;;;34.75;12.05;;;;;;;19.92;100.00;102104.47;143729;719;46006;-83
2023/10/05 05:28:38;;;;;;;33.55;12.25;;;;;;;20.01;100.00;102112.38;143727;697;46008;-81
2023/10/05 05:31:07;;;;;;;34.17;12.90;;;;;;;20.07;100.00;102108.72;143729;590;47006;-81
2023/10/05 05:33:38;;;;;;;30.10;12.30;;;;;;;20.14;100.00;102107.56;143725;568;47012;-81
2023/10/05 05:36:12;;;;;;;37.63;13.30;;;;;;;20.22;100.00;102102.88;143730;945;46004;-82
2023/10/05 05:38:39;;;;;;;45.40;13.98;;;;;;;20.24;100.00;102112.47;143730;568;45923;-83
2023/10/05 05:41:15;;;;;;;38.58;13.13;;;;;;;20.25;100.00;102110.59;143733;885;45011;-81
2023/10/05 05:43:43;;;;;;;47.62;13.85;;;;;;;20.32;100.00;102108.59;143728;569;47010;-84
2023/10/05 05:46:12;;;;;;;30.37;12.07;;;;;;;20.38;100.00;102115.06;143731;579;45012;-83
2023/10/05 05:48:42;;;;;;;35.10;11.95;;;;;;;20.51;100.00;102117.59;143730;589;45922;-82
2023/10/05 05:51:14;;;;;;;36.60;12.05;;;;;;;20.60;100.00;102124.38;143726;616;47004;-82
2023/10/05 05:53:46;;;;;;;33.20;12.65;;;;;;;20.72;100.00;102120.88;143727;567;48010;-82
2023/10/05 05:56:28;;;;;;;33.95;11.90;;;;;;;20.84;100.00;102123.62;143731;593;46004;-82
2023/10/05 05:59:12;;;;;;;33.40;13.90;;;;;;;20.92;100.00;102127.94;143730;590;45922;-83
2023/10/05 06:01:42;;;;;;;27.87;12.15;;;;;;;21.04;100.00;102126.09;143733;569;46002;-82
2023/10/05 06:04:09;;;;;;;18.55;12.52;;;;;;;21.18;100.00;102129.44;143731;587;45921;-78
2023/10/05 06:06:37;;;;;;;28.23;12.73;;;;;;;21.28;100.00;102120.63;143729;591;46004;-81
2023/10/05 06:09:07;;;;;;;28.40;13.05;;;;;;;21.38;100.00;102129.09;143730;617;46026;-81
2023/10/05 06:11:35;;;;;;;27.60;11.85;;;;;;;21.46;100.00;102136.09;143732;597;47004;-81
2023/10/05 06:14:03;;;;;;;30.02;13.07;;;;;;;21.53;100.00;102141.44;143726;585;47010;-80
2023/10/05 06:16:32;;;;;;;33.88;13.85;;;;;;;21.59;100.00;102135.84;143732;769;45012;-81
2023/10/05 06:19:00;;;;;;;28.90;13.02;;;;;;;21.64;100.00;102140.62;143730;594;45923;-82
2023/10/05 06:21:27;;;;;;;34.63;13.25;;;;;;;21.78;100.00;102149.44;143733;589;45010;-80
2023/10/05 06:23:54;;;;;;;25.17;13.30;;;;;;;21.77;100.00;102147.75;143729;572;47012;-80
2023/10/05 06:26:21;;;;;;;32.42;13.82;;;;;;;21.80;100.00;102144.56;143732;745;45012;-81
2023/10/05 06:28:48;;;;;;;30.55;13.27;;;;;;;21.86;100.00;102135.41;143713;695;58004;-80
2023/10/05 06:31:14;;;;;;;32.00;12.77;;;;;;;21.94;100.00;102139.66;143723;595;48004;-80
2023/10/05 06:33:42;;;;;;;39.28;13.93;;;;;;;22.00;100.00;102148.81;143728;574;47010;-81
2023/10/05 06:36:09;;;;;;;25.45;12.57;;;;;;;22.10;100.00;102155.34;143722;762;48002;-81
2023/10/05 06:38:36;;;;;;;34.78;13.48;;;;;;;22.13;100.00;102148.53;143728;717;47006;-81
2023/10/05 06:41:03;;;;;;;24.23;13.40;;;;;;;22.20;100.00;102151.13;143734;684;46004;-82
2023/10/05 06:43:35;;;;;;;31.60;14.05;;;;;;;22.23;100.00;102156.13;143728;574;46010;-81
2023/10/05 06:46:14;;;;;;;36.85;13.88;;;;;;;22.37;100.00;102164.91;143727;574;48004;-83
2023/10/05 06:48:41;;;;;;;32.92;13.27;;;;;;;22.44;100.00;102151.91;143719;579;53006;-83
2023/10/05 06:51:08;;;;;;;28.90;13.73;;;;;;;22.52;100.00;102153.44;143730;574;47004;-81
2023/10/05 06:53:37;;;;;;;33.47;12.37;;;;;;;22.55;100.00;102159.28;143727;583;47008;-81
2023/10/05 06:56:04;;;;;;;33.30;13.68;;;;;;;22.58;100.00;102159.88;143725;607;48002;-81
2023/10/05 06:58:31;;;;;;;27.60;12.98;;;;;;;22.69;100.00;102156.22;143717;669;50004;-82
2023/10/05 07:00:58;;;;;;;27.10;13.57;;;;;;;22.84;100.00;102159.25;143729;617;48000;-83
2023/10/05 07:03:25;;;;;;;32.70;13.90;;;;;;;22.97;100.00;102160.84;143725;567;47004;-83
2023/10/05 07:05:51;;;;;;;30.37;14.13;;;;;;;23.07;100.00;102167.56;143726;592;48002;-82
2023/10/05 07:08:19;;;;;;;25.73;14.23;;;;;;;23.15;100.00;102170.72;143729;611;45922;-83
2023/10/05 07:10:46;;;;;;;19.23;12.65;;;;;;;23.25;100.00;102164.63;143725;589;47017;-83
2023/10/05 07:13:19;;;;;;;28.77;12.15;;;;;;;23.32;100.00;102164.47;143731;569;45920;-83
2023/10/05 07:15:45;;;;;;;27.00;13.57;;;;;;;23.43;100.00;102169.03;143730;591;46002;-82
2023/10/05 07:18:17;;;;;;;23.27;13.88;;;;;;;23.51;100.00;102159.56;143731;573;45923;-81
2023/10/05 07:20:45;;;;;;;22.52;13.35;;;;;;;23.65;100.00;102164.69;143728;640;47000;-83
2023/10/05 07:23:11;;;;;;;29.67;15.20;;;;;;;23.70;100.00;102167.50;143726;600;47008;-80
2023/10/05 07:25:41;;;;;;;24.37;13.80;;;;;;;23.69;100.00;102171.34;143724;648;49002;-83
2023/10/05 07:28:14;;;;;;;29.08;14.10;;;;;;;23.83;100.00;102167.16;143730;702;46006;-81
2023/10/05 07:30:48;;;;;;;34.53;12.95;;;;;;;23.92;100.00;102171.09;143730;623;47002;-82
2023/10/05 07:33:14;;;;;;;44.17;16.90;;;;;;;24.06;100.00;102162.56;143729;584;47008;-82
2023/10/05 07:35:41;;;;;;;31.65;12.98;;;;;;;24.20;100.00;102169.31;143727;629;47004;-82
2023/10/05 07:38:11;;;;;;;30.62;13.27;;;;;;;24.34;100.00;102174.41;143730;578;45923;-81
2023/10/05 07:40:39;;;;;;;25.08;12.23;;;;;;;24.43;100.00;102172.03;143734;573;45010;-83
2023/10/05 07:43:06;;;;;;;26.50;11.98;;;;;;;24.53;100.00;102170.25;143731;604;45920;-82
2023/10/05 07:45:33;;;;;;;20.60;11.60;;;;;;;24.67;100.00;102176.16;143735;588;45929;-81
2023/10/05 07:48:04;;;;;;;19.52;12.55;;;;;;;24.71;100.00;102173.75;143726;591;47006;-80
2023/10/05 07:50:32;;;;;;;26.25;12.05;;;;;;;24.83;100.00;102177.16;143727;607;47002;-81
2023/10/05 07:53:03;;;;;;;19.08;11.07;;;;;;;24.94;100.00;102163.53;143728;567;46010;-81
2023/10/05 07:55:31;;;;;;;18.87;10.82;;;;;;;25.09;100.00;102169.16;143732;597;45013;-82
2023/10/05 07:57:58;;;;;;;23.95;11.25;;;;;;;25.18;100.00;102174.16;143728;595;46006;-82
2023/10/05 08:00:24;;;;;;;22.60;11.40;;;;;;;25.36;100.00;102182.00;143728;595;48000;-82
2023/10/05 08:02:52;;;;;;;27.48;16.08;;;;;;;25.39;100.00;102180.69;143727;596;48002;-81
2023/10/05 08:05:19;;;;;;;24.45;11.35;;;;;;;25.51;100.00;102177.75;143732;635;45012;-81
2023/10/05 08:07:47;;;;;;;33.00;12.13;;;;;;;25.55;100.00;102179.72;143731;620;45923;-82
2023/10/05 08:10:15;;;;;;;21.73;12.10;;;;;;;25.71;100.00;102177.88;143730;637;46004;-83
2023/10/05 08:12:48;;;;;;;24.85;11.30;;;;;;;25.79;100.00;102181.25;143728;568;46008;-82
2023/10/05 08:15:18;;;;;;;24.27;9.48;;;;;;;25.86;100.00;102170.81;143728;574;47002;-83
2023/10/05 08:17:47;;;;;;;24.05;10.02;;;;;;;26.09;100.00;102171.47;143727;622;46002;-83
2023/10/05 08:20:29;;;;;;;18.02;10.27;;;;;;;26.41;100.00;102165.00;143728;627;47000;-82
2023/10/05 08:22:58;;;;;;;16.90;9.53;;;;;;;26.57;100.00;102163.13;143729;592;47008;-82
2023/10/05 08:25:25;;;;;;;16.58;9.80;;;;;;;26.69;100.00;102165.63;143727;569;46004;-81
2023/10/05 08:27:55;;;;;;;18.60;10.25;;;;;;;26.76;100.00;102178.03;143726;572;47006;-83
2023/10/05 08:30:24;;;;;;;30.23;10.90;;;;;;;26.75;100.00;102162.59;143732;619;47004;-82
2023/10/05 08:32:53;;;;;;;23.92;11.68;;;;;;;26.85;100.00;102167.34;143725;633;49010;-82
2023/10/05 08:35:21;;;;;;;30.00;14.07;;;;;;;27.02;100.00;102161.53;143731;617;46012;-84
2023/10/05 08:37:49;;;;;;;17.62;11.50;;;;;;;27.20;100.00;102165.69;143726;572;47006;-83
2023/10/05 08:40:38;;;;;;;27.98;10.20;;;;;;;27.34;100.00;102165.13;143733;570;45571;-83
2023/10/05 08:43:10;;;;;;;15.57;9.55;;;;;;;27.42;100.00;102158.22;143728;640;48002;-83
2023/10/05 08:45:47;;;;;;;22.55;9.70;;;;;;;27.57;100.00;102160.97;143728;568;47002;-83
2023/10/05 08:48:37;;;;;;;28.58;10.85;;;;;;;27.69;100.00;102155.16;143729;605;47006;-84
2023/10/05 08:51:12;;;;;;;23.05;15.18;;;;;;;27.89;100.00;102153.44;143725;573;47012;-83
2023/10/05 08:53:50;;;;;;;21.45;10.88;;;;;;;28.12;100.00;102157.50;143726;633;47921;-83
2023/10/05 08:56:18;;;;;;;21.67;11.38;;;;;;;28.26;100.00;102157.72;143728;578;49002;-82
2023/10/05 08:58:46;;;;;;;20.98;11.75;;;;;;;28.37;100.00;102151.03;143730;640;47006;-82
2023/10/05 09:01:30;;;;;;;23.23;13.68;;;;;;;28.49;100.00;102152.63;143713;588;51002;-82
2023/10/05 09:07:09;;;;;;;24.25;10.05;;;;;;;29.02;100.00;102143.69;143725;585;47004;-82
2023/10/05 09:09:53;;;;;;;21.27;9.75;;;;;;;28.88;100.00;102138.81;143731;603;45927;-82
2023/10/05 09:12:33;;;;;;;;;;;;;;;29.04;100.00;102136.75;143734;985;47004;-83
2023/10/05 09:15:18;;;;;;;16.23;9.98;;;;;;;29.17;100.00;102134.44;143734;695;46012;-83
2023/10/05 09:18:17;;;;;;;19.52;9.93;;;;;;;29.32;100.00;102136.19;143731;672;46004;-82
2023/10/05 09:20:48;;;;;;;18.58;10.68;;;;;;;29.57;100.00;102137.91;143730;608;45925;-82
2023/10/05 09:23:20;;;;;;;21.20;11.75;;;;;;;29.85;100.00;102140.09;143733;683;45011;-82
2023/10/05 09:25:47;;;;;;;22.95;11.73;;;;;;;29.88;100.00;102151.41;143730;665;46013;-82
2023/10/05 09:28:33;;;;;;;29.42;11.65;;;;;;;29.94;100.00;102150.22;143726;573;48004;-82
2023/10/05 09:31:00;;;;;;;25.65;15.73;;;;;;;29.76;100.00;102145.44;143728;632;46004;-83
2023/10/05 09:33:28;;;;;;;21.77;11.23;;;;;;;29.63;100.00;102136.75;143727;579;48006;-82
2023/10/05 09:36:22;;;;;;;20.12;11.52;;;;;;;29.86;100.00;102144.50;143731;573;45926;-81
2023/10/05 09:38:51;;;;;;;22.52;11.68;;;;;;;29.96;100.00;102138.87;143727;652;47004;-82
2023/10/05 09:41:19;;;;;;;18.25;10.35;;;;;;;29.91;100.00;102136.13;143729;641;45925;-82
2023/10/05 09:43:58;;;;;;;25.98;11.05;;;;;;;30.00;100.00;102134.41;143728;566;47006;-82
2023/10/05 09:46:27;;;;;;;33.92;10.50;;;;;;;30.14;100.00;102131.72;143724;627;47021;-82
2023/10/05 09:48:56;;;;;;;20.70;10.25;;;;;;;30.10;100.00;102125.09;143731;567;46004;-82
2023/10/05 09:51:23;;;;;;;27.83;11.00;;;;;;;29.89;100.00;102119.81;143728;568;46008;-82
2023/10/05 09:53:53;;;;;;;19.98;11.50;;;;;;;29.72;100.00;102122.25;143733;602;46004;-82
2023/10/05 09:56:20;;;;;;;22.45;10.10;;;;;;;29.77;100.00;102111.94;143729;621;46006;-83
2023/10/05 09:58:47;;;;;;;24.40;9.95;;;;;;;29.84;100.00;102107.97;143729;646;47012;-82
2023/10/05 10:01:15;;;;;;;17.95;9.35;;;;;;;29.93;100.00;102103.44;143731;593;45926;-82
2023/10/05 10:03:45;;;;;;;18.95;13.80;;;;;;;30.12;100.00;102105.44;143731;580;48006;-82
2023/10/05 10:06:18;;;;;;;20.88;9.35;;;;;;;29.81;100.00;102103.84;143722;631;50010;-82
2023/10/05 10:08:57;;;;;;;17.45;8.75;;;;;;;29.91;100.00;102100.13;143720;577;50004;-83
2023/10/05 10:11:31;;;;;;;21.48;11.77;;;;;;;29.95;100.00;102101.19;143727;602;47008;-82
2023/10/05 10:14:03;;;;;;;18.80;10.02;;;;;;;30.05;100.00;102095.53;143732;644;47004;-83
2023/10/05 10:16:34;;;;;;;18.83;9.32;;;;;;;30.08;100.00;102091.34;143722;573;49011;-82
2023/10/05 10:19:20;;;;;;;27.67;16.05;;;;;;;30.29;100.00;102086.34;143729;622;46004;-83
2023/10/05 10:21:53;;;;;;;27.55;11.82;;;;;;;30.29;100.00;102086.34;143730;645;45925;-82
2023/10/05 10:24:20;;;;;;;18.92;9.30;;;;;;;30.33;97.39;102086.53;143734;630;45010;-83
2023/10/05 10:27:07;;;;;;;19.73;10.63;;;;;;;30.37;100.00;102084.81;143731;592;45927;-82
2023/10/05 10:29:53;;;;;;;19.92;11.05;;;;;;;30.38;98.48;102081.75;143731;588;46004;-82
2023/10/05 10:32:31;;;;;;;14.77;9.00;;;;;;;30.42;99.18;102068.13;143729;600;45925;-83
2023/10/05 10:35:12;;;;;;;20.52;12.45;;;;;;;30.32;97.25;102071.88;143733;597;46002;-83
2023/10/05 10:37:40;;;;;;;22.70;14.52;;;;;;;30.30;99.94;102068.59;143731;569;45927;-80
2023/10/05 10:43:20;;;;;;;21.23;14.10;;;;;;;30.28;99.53;102062.50;143715;677;58004;-80
2023/10/05 10:45:49;;;;;;;31.10;20.23;;;;;;;30.28;99.19;102058.91;143733;610;45011;-79
2023/10/05 10:51:02;;;;;;;35.97;28.87;;;;;;;30.28;100.00;102050.59;143725;609;47006;-80
2023/10/05 10:53:33;;;;;;;55.85;43.90;;;;;;;30.19;100.00;102050.44;143722;577;47009;-81
2023/10/05 10:56:04;;;;;;;64.50;49.70;;;;;;;30.13;100.00;102043.34;143729;619;47004;-81
2023/10/05 10:58:32;;;;;;;45.78;32.00;;;;;;;29.94;100.00;102042.19;143728;568;46010;-83
2023/10/05 11:01:14;;;;;;;17.42;9.35;;;;;;;29.82;99.02;102047.34;143730;593;45012;-79
2023/10/05 11:03:55;;;;;;;53.70;40.88;;;;;;;29.79;100.00;102040.47;143721;607;47024;-80
2023/10/05 11:06:28;;;;;;;31.02;16.40;;;;;;;29.78;99.76;102038.81;143729;576;47004;-79
2023/10/05 11:08:59;;;;;;;19.87;9.27;;;;;;;29.72;98.69;102031.69;143729;589;45927;-80
2023/10/05 11:11:26;;;;;;;42.15;26.75;;;;;;;29.77;99.57;102028.88;143727;603;47006;-80
2023/10/05 11:13:56;;;;;;;17.00;8.93;;;;;;;29.78;99.87;102024.97;143724;601;47008;-80
2023/10/05 11:16:35;;;;;;;22.20;8.30;;;;;;;29.70;97.40;102027.59;143727;589;47006;-80
2023/10/05 11:19:05;;;;;;;20.65;9.18;;;;;;;29.61;100.00;102033.78;143728;601;46012;-80
2023/10/05 11:21:35;;;;;;;11.98;7.75;;;;;;;29.41;100.00;102028.50;143727;608;48004;-79
2023/10/05 11:24:07;;;;;;;12.43;7.72;;;;;;;28.87;100.00;102026.56;143729;610;46005;-80
2023/10/05 11:29:43;;;;;;;21.00;9.50;;;;;;;28.81;100.00;102016.66;143719;626;48010;-81
2023/10/05 11:32:12;;;;;;;17.08;8.45;;;;;;;28.82;100.00;102021.06;143723;569;47004;-80
2023/10/05 11:34:43;;;;;;;19.17;8.90;;;;;;;28.68;100.00;102018.12;143722;594;47008;-80
2023/10/05 11:37:16;;;;;;;18.95;9.13;;;;;;;28.65;100.00;102010.44;143728;572;47011;-80
2023/10/05 11:39:49;;;;;;;18.65;9.20;;;;;;;28.77;100.00;102018.34;143729;596;45922;-79
2023/10/05 11:42:24;;;;;;;17.45;9.55;;;;;;;28.63;100.00;102012.66;143729;573;46014;-81
2023/10/05 11:45:00;;;;;;;14.30;8.40;;;;;;;28.40;100.00;102008.72;143727;589;45924;-80
2023/10/05 11:47:41;;;;;;;12.15;8.35;;;;;;;28.44;100.00;102007.00;143726;574;49004;-80
2023/10/05 11:52:56;;;;;;;19.08;11.05;;;;;;;28.43;100.00;102011.72;143708;589;60004;-80
2023/10/05 11:55:23;;;;;;;24.45;8.65;;;;;;;28.15;100.00;102005.03;143729;603;45927;-80
2023/10/05 11:57:52;;;;;;;16.80;8.43;;;;;;;28.05;100.00;102010.59;143724;600;47004;-81
2023/10/05 12:00:19;;;;;;;15.50;9.40;;;;;;;28.08;100.00;102001.72;143729;582;45926;-81
2023/10/05 12:02:46;;;;;;;13.45;8.10;;;;;;;28.16;100.00;102005.84;143716;651;50004;-80
2023/10/05 12:05:13;;;;;;;15.77;8.60;;;;;;;28.22;100.00;102002.78;143729;567;45927;-80
2023/10/05 12:07:41;;;;;;;12.60;8.13;;;;;;;28.24;100.00;101997.75;143724;601;47015;-81
2023/10/05 12:10:11;;;;;;;15.25;8.50;;;;;;;28.37;100.00;101996.28;143728;622;46013;-80
2023/10/05 12:12:41;;;;;;;12.37;8.70;;;;;;;28.47;100.00;101992.63;143723;594;47006;-81
2023/10/05 12:15:17;;;;;;;15.70;8.75;;;;;;;28.44;100.00;101993.19;143726;689;46006;-79
2023/10/05 12:17:45;;;;;;;17.85;7.82;;;;;;;28.48;100.00;101985.97;143723;583;48016;-80
2023/10/05 12:20:14;;;;;;;21.92;8.52;;;;;;;28.63;100.00;101984.19;143725;612;47010;-80
2023/10/05 12:22:41;;;;;;;17.52;9.95;;;;;;;28.73;100.00;101981.34;143729;581;46006;-80
2023/10/05 12:25:09;;;;;;;25.58;12.65;;;;;;;28.69;100.00;101991.31;143727;593;45928;-80
2023/10/05 12:27:36;;;;;;;16.85;11.95;;;;;;;28.70;100.00;101979.16;143720;589;50004;-80
2023/10/05 12:30:24;;;;;;;20.80;10.80;;;;;;;28.67;100.00;101983.34;143729;586;45925;-80
2023/10/05 12:32:51;;;;;;;17.05;12.80;;;;;;;28.48;100.00;101982.41;143730;614;45012;-81
2023/10/05 12:35:18;;;;;;;13.77;8.20;;;;;;;28.42;100.00;101976.91;143726;592;47008;-82
2023/10/05 12:37:46;;;;;;;16.30;11.12;;;;;;;28.45;100.00;101975.50;143732;604;45010;-79
2023/10/05 12:40:19;;;;;;;21.08;9.88;;;;;;;28.43;100.00;101981.31;143728;605;46027;-80
2023/10/05 12:42:52;;;;;;;14.57;8.68;;;;;;;28.33;100.00;101978.63;143728;704;47004;-80
2023/10/05 12:45:25;;;;;;;14.87;9.73;;;;;;;28.33;100.00;101975.87;143727;601;46928;-81
2023/10/05 12:47:56;;;;;;;17.75;12.05;;;;;;;28.17;100.00;101971.59;143730;641;46006;-78
2023/10/05 12:50:30;;;;;;;14.82;10.32;;;;;;;28.15;100.00;101971.88;143725;568;48010;-80
2023/10/05 12:52:58;;;;;;;18.77;10.90;;;;;;;28.21;100.00;101969.91;143729;573;45925;-81
2023/10/05 12:55:32;;;;;;;17.62;9.25;;;;;;;28.12;100.00;101970.53;143727;591;46008;-83
2023/10/05 12:57:59;;;;;;;16.75;10.15;;;;;;;28.18;100.00;101970.47;143723;566;49008;-82
2023/10/05 13:00:34;;;;;;;16.30;12.18;;;;;;;28.17;100.00;101966.06;143729;607;45925;-81
2023/10/05 13:03:01;;;;;;;18.23;11.12;;;;;;;28.20;100.00;101965.47;143726;705;47006;-82
2023/10/05 13:05:51;;;;;;;13.52;9.45;;;;;;;28.23;100.00;101962.16;143728;581;45927;-84
2023/10/05 13:08:21;;;;;;;17.95;12.13;;;;;;;28.32;100.00;101959.59;143730;574;46002;-81
2023/10/05 13:10:48;;;;;;;18.15;12.15;;;;;;;28.26;100.00;101956.88;143729;599;46010;-82
2023/10/05 13:13:20;;;;;;;15.77;12.77;;;;;;;28.24;100.00;101948.03;143729;572;46004;-83
2023/10/05 13:15:47;;;;;;;20.67;15.30;;;;;;;28.24;100.00;101945.28;143728;631;46008;-81
2023/10/05 13:18:20;;;;;;;16.77;8.95;;;;;;;28.16;100.00;101942.31;143723;573;49002;-81
2023/10/05 13:20:49;;;;;;;23.48;19.00;;;;;;;27.97;100.00;101938.28;143729;624;45925;-80
2023/10/05 13:23:19;;;;;;;23.23;18.37;;;;;;;27.91;100.00;101933.09;143725;577;47008;-81
2023/10/05 13:25:49;;;;;;;18.02;14.43;;;;;;;27.81;100.00;101937.56;143730;696;45926;-82
2023/10/05 13:28:18;;;;;;;15.18;10.35;;;;;;;27.78;100.00;101929.03;143723;682;49002;-80
2023/10/05 13:30:50;;;;;;;22.70;13.88;;;;;;;27.91;100.00;101933.09;143721;579;48006;-81
2023/10/05 13:33:21;;;;;;;13.73;8.68;;;;;;;27.84;100.00;101928.72;143730;599;45012;-81
2023/10/05 13:35:49;;;;;;;16.02;8.45;;;;;;;27.84;100.00;101925.94;143724;572;49002;-82
2023/10/05 13:38:23;;;;;;;12.70;8.30;;;;;;;27.90;100.00;101923.97;143730;667;47006;-82
2023/10/05 13:41:13;;;;;;;13.62;9.50;;;;;;;27.96;100.00;101928.34;143726;600;47010;-83
2023/10/05 13:43:41;;;;;;;12.52;8.95;;;;;;;27.92;100.00;101926.47;143729;573;46014;-81
2023/10/05 13:46:17;;;;;;;17.60;9.60;;;;;;;27.94;100.00;101924.25;143726;621;47007;-83